Wilson Gaeta — 8PTS — position and weather

sailwx.info

Track history (hours):
 
Tides and Currents Weather Stations Pressure Air Temp Water Temp Dewpoint Dewpoint Depression Visibility Wind Speed Wind Dir Waves Ship Positions

Wilson Gaeta

Last reported at 2017-Mar-29 07:33 UTC. Time now 2017-Mar-29 21:17 UTC.
Position N 61°43' E 004°25'.

Length 88 m; draft 5.2 m.

Type: Ship. MMSI: 314237000.

Date/timePositionNaut miles runAvg speedWind from/ knotsBaromVisibWave heightAir tempDewpointWater temp
2017-Mar-29 07:33N 61°43' E 004°25'9 8.9
2017-Mar-29 06:33N 61°51' E 004°31'10 9.7
2017-Mar-29 05:33N 61°60' E 004°40'10 9.9
2017-Mar-29 04:33N 62°09' E 004°50'1010.2
2017-Mar-29 03:33N 62°17' E 005°02'1010.0
2017-Mar-29 02:33N 62°25' E 005°15'10 9.6
2017-Mar-29 01:33N 62°32' E 005°29'10 9.8
2017-Mar-29 00:33N 62°40' E 005°43'10 9.6
2017-Mar-28 23:33N 62°47' E 005°56'1010.0
2017-Mar-28 22:33N 62°54' E 006°12'1010.0
2017-Mar-28 21:33N 63°00' E 006°29'1010.1
2017-Mar-28 20:33N 63°06' E 006°47'10 9.5
2017-Mar-28 19:33N 63°11' E 007°06'9 9.1
2017-Mar-28 18:33N 63°14' E 007°24'10 9.6
2017-Mar-28 17:33N 63°14' E 007°45'10 9.8
2017-Mar-28 16:33N 63°16' E 008°07'1110.6
2017-Mar-28 15:32N 63°23' E 008°25'1110.9
2017-Mar-28 14:33N 63°27' E 008°47'1110.9
2017-Mar-28 13:33N 63°31' E 009°10'1110.5
2017-Mar-28 12:33N 63°36' E 009°30'8 7.9
2017-Mar-28 11:33N 63°36' E 009°48'10 9.6
2017-Mar-28 10:33N 63°28' E 010°00'1010.4
2017-Mar-28 09:34N 63°33' E 010°22'1010.2
2017-Mar-28 08:33N 63°38' E 010°40'1110.6
2017-Mar-28 07:34N 63°45' E 010°59'1010.1
2017-Mar-28 06:33N 63°55' E 011°04'4 3.7
2017-Mar-28 05:30N 63°59' E 011°06'0 0.0
2017-Mar-28 04:33N 63°59' E 011°06'0 0.0
2017-Mar-28 03:30N 63°59' E 011°06'0 0.0
2017-Mar-28 02:33N 63°59' E 011°06'0 0.0
2017-Mar-28 01:27N 63°59' E 011°06'0 0.0
2017-Mar-28 00:33N 63°59' E 011°06'0 0.0
2017-Mar-27 23:30N 63°59' E 011°06'0 0.0
2017-Mar-27 22:33N 63°59' E 011°06'0 0.0
2017-Mar-27 21:30N 63°59' E 011°06'0 0.0
2017-Mar-27 20:33N 63°59' E 011°06'0 0.0
2017-Mar-27 19:33N 63°59' E 011°06'0 0.0
2017-Mar-27 18:24N 63°59' E 011°06'0 0.0
2017-Mar-27 17:33N 63°59' E 011°06'0 0.0
2017-Mar-27 16:33N 63°59' E 011°06'0 0.0
2017-Mar-27 15:33N 63°59' E 011°06'0 0.0
2017-Mar-27 14:33N 63°59' E 011°06'0 0.0
2017-Mar-27 13:30N 63°59' E 011°06'0 0.0
2017-Mar-27 12:33N 63°59' E 011°06'0 0.0
2017-Mar-27 11:33N 63°59' E 011°06'0 0.0
2017-Mar-27 10:30N 63°59' E 011°06'0 0.0
2017-Mar-27 09:33N 63°59' E 011°06'0 0.0
2017-Mar-27 08:33N 63°59' E 011°06'0 0.0
2017-Mar-27 07:33N 63°59' E 011°06'0 0.0
2017-Mar-27 06:33N 63°59' E 011°06'0 0.0
2017-Mar-27 05:33N 63°59' E 011°06'0 0.0
2017-Mar-27 04:33N 63°59' E 011°06'0 0.0
2017-Mar-27 03:33N 63°59' E 011°06'0 0.0
2017-Mar-27 02:33N 63°59' E 011°06'0 0.0
2017-Mar-27 01:33N 63°59' E 011°06'0 0.0
2017-Mar-27 00:33N 63°59' E 011°06'0 0.0
2017-Mar-26 23:33N 63°59' E 011°06'0 0.0
2017-Mar-26 22:33N 63°59' E 011°06'0 0.0
2017-Mar-26 21:33N 63°59' E 011°06'0 0.0
2017-Mar-26 20:33N 63°59' E 011°06'0 0.0
2017-Mar-26 19:30N 63°59' E 011°06'0 0.0
2017-Mar-26 18:33N 63°59' E 011°06'0 0.0
2017-Mar-26 17:33N 63°59' E 011°06'0 0.0
2017-Mar-26 16:33N 63°59' E 011°06'0 0.0
2017-Mar-26 15:33N 63°59' E 011°06'0 0.0
2017-Mar-26 14:30N 63°59' E 011°06'0 0.0
2017-Mar-26 13:30N 63°59' E 011°06'0 0.0
2017-Mar-26 12:33N 63°59' E 011°06'0 0.0
2017-Mar-26 11:33N 63°59' E 011°06'0 0.0
2017-Mar-26 10:33N 63°59' E 011°06'0 0.0
2017-Mar-26 09:33N 63°59' E 011°06'0 0.0
2017-Mar-26 08:33N 63°59' E 011°06'0 0.0
2017-Mar-26 07:33N 63°59' E 011°06'0 0.0
2017-Mar-26 06:33N 63°59' E 011°06'0 0.0
2017-Mar-26 05:33N 63°59' E 011°06'0 0.0
2017-Mar-26 04:33N 63°59' E 011°06'0 0.0
2017-Mar-26 03:33N 63°59' E 011°06'0 0.0
2017-Mar-26 02:33N 63°59' E 011°06'0 0.0
2017-Mar-26 01:33N 63°59' E 011°06'0 0.0
2017-Mar-26 00:33N 63°59' E 011°06'0 0.0
2017-Mar-25 23:33N 63°59' E 011°06'0 0.0
2017-Mar-25 22:33N 63°59' E 011°06'0 0.0
2017-Mar-25 21:33N 63°59' E 011°06'0 0.0
2017-Mar-25 20:33N 63°59' E 011°06'0 0.0
2017-Mar-25 19:33N 63°59' E 011°06'0 0.0
2017-Mar-25 18:33N 63°59' E 011°06'0 0.0
2017-Mar-25 17:33N 63°59' E 011°06'0 0.0
2017-Mar-25 16:33N 63°59' E 011°06'0 0.0
2017-Mar-25 15:33N 63°59' E 011°06'0 0.0
2017-Mar-25 14:30N 63°59' E 011°06'0 0.0
2017-Mar-25 13:33N 63°59' E 011°06'4 4.3
2017-Mar-25 12:33N 64°01' E 011°14'0 0.1
2017-Mar-25 11:31N 64°01' E 011°14'0 0.0
2017-Mar-25 10:31N 64°01' E 011°14'0 0.0
2017-Mar-25 09:31N 64°01' E 011°14'0 0.0
2017-Mar-25 08:31N 64°01' E 011°14'0 0.0
2017-Mar-25 07:31N 64°01' E 011°14'0 0.1
2017-Mar-25 06:31N 64°01' E 011°14'0 0.0
2017-Mar-25 05:31N 64°01' E 011°14'0 0.1
2017-Mar-25 04:31N 64°01' E 011°15'0 0.0
2017-Mar-25 03:31N 64°01' E 011°14'0 0.0
2017-Mar-25 02:31N 64°01' E 011°14'0 0.0
2017-Mar-25 01:31N 64°01' E 011°14'0 0.0
2017-Mar-25 00:31N 64°01' E 011°14'0 0.1
2017-Mar-24 23:31N 64°01' E 011°15'0 0.0
2017-Mar-24 22:31N 64°01' E 011°15'0 0.0
2017-Mar-24 21:31N 64°01' E 011°15'0 0.0
2017-Mar-24 20:31N 64°01' E 011°15'0 0.0
2017-Mar-24 19:31N 64°01' E 011°15'0 0.1
2017-Mar-24 18:31N 64°01' E 011°14'0 0.0
2017-Mar-24 17:31N 64°01' E 011°14'0 0.0
2017-Mar-24 16:31N 64°01' E 011°14'0 0.0
2017-Mar-24 15:31N 64°01' E 011°14'0 0.0
2017-Mar-24 14:31N 64°01' E 011°14'0 0.0
2017-Mar-24 13:31N 64°01' E 011°14'0 0.0
2017-Mar-24 12:31N 64°01' E 011°14'0 0.0
2017-Mar-24 11:31N 64°01' E 011°14'0 0.0
2017-Mar-24 10:31N 64°01' E 011°14'0 0.0
2017-Mar-24 09:31N 64°01' E 011°14'0 0.0
2017-Mar-24 08:31N 64°01' E 011°14'0 0.0
2017-Mar-24 07:31N 64°01' E 011°14'0 0.0
2017-Mar-24 06:31N 64°01' E 011°14'0 0.0
2017-Mar-24 05:31N 64°01' E 011°15'0 0.0
2017-Mar-24 04:31N 64°01' E 011°14'0 0.0
2017-Mar-24 03:31N 64°01' E 011°15'0 0.0
2017-Mar-24 02:31N 64°01' E 011°15'0 0.0
2017-Mar-24 01:31N 64°01' E 011°15'0 0.0
2017-Mar-24 00:31N 64°01' E 011°15'0 0.0
2017-Mar-23 23:31N 64°01' E 011°15'0 0.0
2017-Mar-23 22:31N 64°01' E 011°15'0 0.0
2017-Mar-23 21:31N 64°01' E 011°14'0 0.1
2017-Mar-23 20:31N 64°01' E 011°15'0 0.0
2017-Mar-23 19:31N 64°01' E 011°14'0 0.0
2017-Mar-23 18:31N 64°01' E 011°14'0 0.1
2017-Mar-23 17:31N 64°01' E 011°15'0 0.0
2017-Mar-23 15:10N 64°01' E 011°15'0 0.0
2017-Mar-23 14:31N 64°01' E 011°15'0 0.0
2017-Mar-23 13:31N 64°01' E 011°14'0 0.0
2017-Mar-23 12:31N 64°01' E 011°14'0 0.0
2017-Mar-23 11:31N 64°01' E 011°14'0 0.0
2017-Mar-23 10:31N 64°01' E 011°14'0 0.1
2017-Mar-23 09:31N 64°01' E 011°14'0 0.0
2017-Mar-23 08:31N 64°01' E 011°14'0 0.0
2017-Mar-23 07:31N 64°01' E 011°14'0 0.0
2017-Mar-23 06:31N 64°01' E 011°14'0 0.0
2017-Mar-23 05:31N 64°01' E 011°14'0 0.1
2017-Mar-23 04:31N 64°01' E 011°15'0 0.0
2017-Mar-23 03:31N 64°01' E 011°15'0 0.0
2017-Mar-23 02:31N 64°01' E 011°15'0 0.0
2017-Mar-23 01:31N 64°01' E 011°14'0 0.0
2017-Mar-23 00:31N 64°01' E 011°15'0 0.0
2017-Mar-22 23:31N 64°01' E 011°14'0 0.0
2017-Mar-22 22:31N 64°01' E 011°14'0 0.0
2017-Mar-22 21:31N 64°01' E 011°15'0 0.0
2017-Mar-22 20:31N 64°01' E 011°15'0 0.0
2017-Mar-22 19:31N 64°01' E 011°15'0 0.0
2017-Mar-22 18:31N 64°01' E 011°15'0 0.0
2017-Mar-22 17:31N 64°01' E 011°15'0 0.0
2017-Mar-22 16:31N 64°01' E 011°15'0 0.0
2017-Mar-22 15:31N 64°01' E 011°15'0 0.0
2017-Mar-22 14:28N 64°01' E 011°14'0 0.0
2017-Mar-22 13:31N 64°01' E 011°14'0 0.0
2017-Mar-22 12:31N 64°01' E 011°14'0 0.1
2017-Mar-22 11:31N 64°01' E 011°14'0 0.1
2017-Mar-22 10:31N 64°01' E 011°14'0 0.0
2017-Mar-22 09:31N 64°01' E 011°14'0 0.0
2017-Mar-22 08:31N 64°01' E 011°14'0 0.0
2017-Mar-22 07:31N 64°01' E 011°14'0 0.0
2017-Mar-22 06:31N 64°01' E 011°14'0 0.0
2017-Mar-22 05:31N 64°01' E 011°14'0 0.0
2017-Mar-22 04:31N 64°01' E 011°14'0 0.0
2017-Mar-22 03:31N 64°01' E 011°14'0 0.0
2017-Mar-22 02:31N 64°01' E 011°14'0 0.0
2017-Mar-22 01:31N 64°01' E 011°14'0 0.0
2017-Mar-22 00:31N 64°01' E 011°14'0 0.0
2017-Mar-21 23:31N 64°01' E 011°14'0 0.0
2017-Mar-21 22:31N 64°01' E 011°14'0 0.0
2017-Mar-21 21:28N 64°01' E 011°14'0 0.0
2017-Mar-21 20:31N 64°01' E 011°14'0 0.0
2017-Mar-21 19:31N 64°01' E 011°14'0 0.1
2017-Mar-21 18:31N 64°01' E 011°14'8 8.1
2017-Mar-21 17:33N 63°54' E 011°05'1010.0
2017-Mar-21 16:33N 63°45' E 010°59'1010.3
2017-Mar-21 15:33N 63°39' E 010°40'1110.8
2017-Mar-21 14:33N 63°32' E 010°21'1010.3
2017-Mar-21 13:33N 63°29' E 009°59'10 9.9
2017-Mar-21 12:33N 63°37' E 009°47'8 8.1
2017-Mar-21 11:33N 63°36' E 009°29'1111.1
2017-Mar-21 10:33N 63°31' E 009°08'1111.0
2017-Mar-21 09:33N 63°26' E 008°45'1110.8
2017-Mar-21 08:33N 63°22' E 008°23'1110.9
2017-Mar-21 07:34N 63°15' E 008°04'1010.0
2017-Mar-21 06:33N 63°14' E 007°42'10 9.6
2017-Mar-21 05:33N 63°13' E 007°21'9 9.1
2017-Mar-21 04:33N 63°10' E 007°02'9 9.2
2017-Mar-21 03:33N 63°05' E 006°44'9 9.3
2017-Mar-21 02:33N 63°01' E 006°26'9 8.9
2017-Mar-21 01:33N 62°57' E 006°09'9 9.4
2017-Mar-21 00:33N 62°52' E 005°51'10 9.6
2017-Mar-20 23:33N 62°48' E 005°33'  
Track history (hours):
 
Tides and Currents Weather Stations Pressure Air Temp Water Temp Dewpoint Dewpoint Depression Visibility Wind Speed Wind Dir Waves Ship Positions

Wilson Gaeta

Last reported at 2017-Mar-29 07:33 UTC. Time now 2017-Mar-29 21:17 UTC.
Position N 61°43' E 004°25'.

Length 88 m; draft 5.2 m.

Type: Ship. MMSI: 314237000.

Date/timePositionNaut miles runAvg speedWind from/ knotsBaromVisibWave heightAir tempDewpointWater temp
2017-Mar-29 07:33N 61°43' E 004°25'9 8.9
2017-Mar-29 06:33N 61°51' E 004°31'10 9.7
2017-Mar-29 05:33N 61°60' E 004°40'10 9.9
2017-Mar-29 04:33N 62°09' E 004°50'1010.2
2017-Mar-29 03:33N 62°17' E 005°02'1010.0
2017-Mar-29 02:33N 62°25' E 005°15'10 9.6
2017-Mar-29 01:33N 62°32' E 005°29'10 9.8
2017-Mar-29 00:33N 62°40' E 005°43'10 9.6
2017-Mar-28 23:33N 62°47' E 005°56'1010.0
2017-Mar-28 22:33N 62°54' E 006°12'1010.0
2017-Mar-28 21:33N 63°00' E 006°29'1010.1
2017-Mar-28 20:33N 63°06' E 006°47'10 9.5
2017-Mar-28 19:33N 63°11' E 007°06'9 9.1
2017-Mar-28 18:33N 63°14' E 007°24'10 9.6
2017-Mar-28 17:33N 63°14' E 007°45'10 9.8
2017-Mar-28 16:33N 63°16' E 008°07'1110.6
2017-Mar-28 15:32N 63°23' E 008°25'1110.9
2017-Mar-28 14:33N 63°27' E 008°47'1110.9
2017-Mar-28 13:33N 63°31' E 009°10'1110.5
2017-Mar-28 12:33N 63°36' E 009°30'8 7.9
2017-Mar-28 11:33N 63°36' E 009°48'10 9.6
2017-Mar-28 10:33N 63°28' E 010°00'1010.4
2017-Mar-28 09:34N 63°33' E 010°22'1010.2
2017-Mar-28 08:33N 63°38' E 010°40'1110.6
2017-Mar-28 07:34N 63°45' E 010°59'1010.1
2017-Mar-28 06:33N 63°55' E 011°04'4 3.7
2017-Mar-28 05:30N 63°59' E 011°06'0 0.0
2017-Mar-28 04:33N 63°59' E 011°06'0 0.0
2017-Mar-28 03:30N 63°59' E 011°06'0 0.0
2017-Mar-28 02:33N 63°59' E 011°06'0 0.0
2017-Mar-28 01:27N 63°59' E 011°06'0 0.0
2017-Mar-28 00:33N 63°59' E 011°06'0 0.0
2017-Mar-27 23:30N 63°59' E 011°06'0 0.0
2017-Mar-27 22:33N 63°59' E 011°06'0 0.0
2017-Mar-27 21:30N 63°59' E 011°06'0 0.0
2017-Mar-27 20:33N 63°59' E 011°06'0 0.0
2017-Mar-27 19:33N 63°59' E 011°06'0 0.0
2017-Mar-27 18:24N 63°59' E 011°06'0 0.0
2017-Mar-27 17:33N 63°59' E 011°06'0 0.0
2017-Mar-27 16:33N 63°59' E 011°06'0 0.0
2017-Mar-27 15:33N 63°59' E 011°06'0 0.0
2017-Mar-27 14:33N 63°59' E 011°06'0 0.0
2017-Mar-27 13:30N 63°59' E 011°06'0 0.0
2017-Mar-27 12:33N 63°59' E 011°06'0 0.0
2017-Mar-27 11:33N 63°59' E 011°06'0 0.0
2017-Mar-27 10:30N 63°59' E 011°06'0 0.0
2017-Mar-27 09:33N 63°59' E 011°06'0 0.0
2017-Mar-27 08:33N 63°59' E 011°06'0 0.0
2017-Mar-27 07:33N 63°59' E 011°06'0 0.0
2017-Mar-27 06:33N 63°59' E 011°06'0 0.0
2017-Mar-27 05:33N 63°59' E 011°06'0 0.0
2017-Mar-27 04:33N 63°59' E 011°06'0 0.0
2017-Mar-27 03:33N 63°59' E 011°06'0 0.0
2017-Mar-27 02:33N 63°59' E 011°06'0 0.0
2017-Mar-27 01:33N 63°59' E 011°06'0 0.0
2017-Mar-27 00:33N 63°59' E 011°06'0 0.0
2017-Mar-26 23:33N 63°59' E 011°06'0 0.0
2017-Mar-26 22:33N 63°59' E 011°06'0 0.0
2017-Mar-26 21:33N 63°59' E 011°06'0 0.0
2017-Mar-26 20:33N 63°59' E 011°06'0 0.0
2017-Mar-26 19:30N 63°59' E 011°06'0 0.0
2017-Mar-26 18:33N 63°59' E 011°06'0 0.0
2017-Mar-26 17:33N 63°59' E 011°06'0 0.0
2017-Mar-26 16:33N 63°59' E 011°06'0 0.0
2017-Mar-26 15:33N 63°59' E 011°06'0 0.0
2017-Mar-26 14:30N 63°59' E 011°06'0 0.0
2017-Mar-26 13:30N 63°59' E 011°06'0 0.0
2017-Mar-26 12:33N 63°59' E 011°06'0 0.0
2017-Mar-26 11:33N 63°59' E 011°06'0 0.0
2017-Mar-26 10:33N 63°59' E 011°06'0 0.0
2017-Mar-26 09:33N 63°59' E 011°06'0 0.0
2017-Mar-26 08:33N 63°59' E 011°06'0 0.0
2017-Mar-26 07:33N 63°59' E 011°06'0 0.0
2017-Mar-26 06:33N 63°59' E 011°06'0 0.0
2017-Mar-26 05:33N 63°59' E 011°06'0 0.0
2017-Mar-26 04:33N 63°59' E 011°06'0 0.0
2017-Mar-26 03:33N 63°59' E 011°06'0 0.0
2017-Mar-26 02:33N 63°59' E 011°06'0 0.0
2017-Mar-26 01:33N 63°59' E 011°06'0 0.0
2017-Mar-26 00:33N 63°59' E 011°06'0 0.0
2017-Mar-25 23:33N 63°59' E 011°06'0 0.0
2017-Mar-25 22:33N 63°59' E 011°06'0 0.0
2017-Mar-25 21:33N 63°59' E 011°06'0 0.0
2017-Mar-25 20:33N 63°59' E 011°06'0 0.0
2017-Mar-25 19:33N 63°59' E 011°06'0 0.0
2017-Mar-25 18:33N 63°59' E 011°06'0 0.0
2017-Mar-25 17:33N 63°59' E 011°06'0 0.0
2017-Mar-25 16:33N 63°59' E 011°06'0 0.0
2017-Mar-25 15:33N 63°59' E 011°06'0 0.0
2017-Mar-25 14:30N 63°59' E 011°06'0 0.0
2017-Mar-25 13:33N 63°59' E 011°06'4 4.3
2017-Mar-25 12:33N 64°01' E 011°14'0 0.1
2017-Mar-25 11:31N 64°01' E 011°14'0 0.0
2017-Mar-25 10:31N 64°01' E 011°14'0 0.0
2017-Mar-25 09:31N 64°01' E 011°14'0 0.0
2017-Mar-25 08:31N 64°01' E 011°14'0 0.0
2017-Mar-25 07:31N 64°01' E 011°14'0 0.1
2017-Mar-25 06:31N 64°01' E 011°14'0 0.0
2017-Mar-25 05:31N 64°01' E 011°14'0 0.1
2017-Mar-25 04:31N 64°01' E 011°15'0 0.0
2017-Mar-25 03:31N 64°01' E 011°14'0 0.0
2017-Mar-25 02:31N 64°01' E 011°14'0 0.0
2017-Mar-25 01:31N 64°01' E 011°14'0 0.0
2017-Mar-25 00:31N 64°01' E 011°14'0 0.1
2017-Mar-24 23:31N 64°01' E 011°15'0 0.0
2017-Mar-24 22:31N 64°01' E 011°15'0 0.0
2017-Mar-24 21:31N 64°01' E 011°15'0 0.0
2017-Mar-24 20:31N 64°01' E 011°15'0 0.0
2017-Mar-24 19:31N 64°01' E 011°15'0 0.1
2017-Mar-24 18:31N 64°01' E 011°14'0 0.0
2017-Mar-24 17:31N 64°01' E 011°14'0 0.0
2017-Mar-24 16:31N 64°01' E 011°14'0 0.0
2017-Mar-24 15:31N 64°01' E 011°14'0 0.0
2017-Mar-24 14:31N 64°01' E 011°14'0 0.0
2017-Mar-24 13:31N 64°01' E 011°14'0 0.0
2017-Mar-24 12:31N 64°01' E 011°14'0 0.0
2017-Mar-24 11:31N 64°01' E 011°14'0 0.0
2017-Mar-24 10:31N 64°01' E 011°14'0 0.0
2017-Mar-24 09:31N 64°01' E 011°14'0 0.0
2017-Mar-24 08:31N 64°01' E 011°14'0 0.0
2017-Mar-24 07:31N 64°01' E 011°14'0 0.0
2017-Mar-24 06:31N 64°01' E 011°14'0 0.0
2017-Mar-24 05:31N 64°01' E 011°15'0 0.0
2017-Mar-24 04:31N 64°01' E 011°14'0 0.0
2017-Mar-24 03:31N 64°01' E 011°15'0 0.0
2017-Mar-24 02:31N 64°01' E 011°15'0 0.0
2017-Mar-24 01:31N 64°01' E 011°15'0 0.0
2017-Mar-24 00:31N 64°01' E 011°15'0 0.0
2017-Mar-23 23:31N 64°01' E 011°15'0 0.0
2017-Mar-23 22:31N 64°01' E 011°15'0 0.0
2017-Mar-23 21:31N 64°01' E 011°14'0 0.1
2017-Mar-23 20:31N 64°01' E 011°15'0 0.0
2017-Mar-23 19:31N 64°01' E 011°14'0 0.0
2017-Mar-23 18:31N 64°01' E 011°14'0 0.1
2017-Mar-23 17:31N 64°01' E 011°15'0 0.0
2017-Mar-23 15:10N 64°01' E 011°15'0 0.0
2017-Mar-23 14:31N 64°01' E 011°15'0 0.0
2017-Mar-23 13:31N 64°01' E 011°14'0 0.0
2017-Mar-23 12:31N 64°01' E 011°14'0 0.0
2017-Mar-23 11:31N 64°01' E 011°14'0 0.0
2017-Mar-23 10:31N 64°01' E 011°14'0 0.1
2017-Mar-23 09:31N 64°01' E 011°14'0 0.0
2017-Mar-23 08:31N 64°01' E 011°14'0 0.0
2017-Mar-23 07:31N 64°01' E 011°14'0 0.0
2017-Mar-23 06:31N 64°01' E 011°14'0 0.0
2017-Mar-23 05:31N 64°01' E 011°14'0 0.1
2017-Mar-23 04:31N 64°01' E 011°15'0 0.0
2017-Mar-23 03:31N 64°01' E 011°15'0 0.0
2017-Mar-23 02:31N 64°01' E 011°15'0 0.0
2017-Mar-23 01:31N 64°01' E 011°14'0 0.0
2017-Mar-23 00:31N 64°01' E 011°15'0 0.0
2017-Mar-22 23:31N 64°01' E 011°14'0 0.0
2017-Mar-22 22:31N 64°01' E 011°14'0 0.0
2017-Mar-22 21:31N 64°01' E 011°15'0 0.0
2017-Mar-22 20:31N 64°01' E 011°15'0 0.0
2017-Mar-22 19:31N 64°01' E 011°15'0 0.0
2017-Mar-22 18:31N 64°01' E 011°15'0 0.0
2017-Mar-22 17:31N 64°01' E 011°15'0 0.0
2017-Mar-22 16:31N 64°01' E 011°15'0 0.0
2017-Mar-22 15:31N 64°01' E 011°15'0 0.0
2017-Mar-22 14:28N 64°01' E 011°14'0 0.0
2017-Mar-22 13:31N 64°01' E 011°14'0 0.0
2017-Mar-22 12:31N 64°01' E 011°14'0 0.1
2017-Mar-22 11:31N 64°01' E 011°14'0 0.1
2017-Mar-22 10:31N 64°01' E 011°14'0 0.0
2017-Mar-22 09:31N 64°01' E 011°14'0 0.0
2017-Mar-22 08:31N 64°01' E 011°14'0 0.0
2017-Mar-22 07:31N 64°01' E 011°14'0 0.0
2017-Mar-22 06:31N 64°01' E 011°14'0 0.0
2017-Mar-22 05:31N 64°01' E 011°14'0 0.0
2017-Mar-22 04:31N 64°01' E 011°14'0 0.0
2017-Mar-22 03:31N 64°01' E 011°14'0 0.0
2017-Mar-22 02:31N 64°01' E 011°14'0 0.0
2017-Mar-22 01:31N 64°01' E 011°14'0 0.0
2017-Mar-22 00:31N 64°01' E 011°14'0 0.0
2017-Mar-21 23:31N 64°01' E 011°14'0 0.0
2017-Mar-21 22:31N 64°01' E 011°14'0 0.0
2017-Mar-21 21:28N 64°01' E 011°14'0 0.0
2017-Mar-21 20:31N 64°01' E 011°14'0 0.0
2017-Mar-21 19:31N 64°01' E 011°14'0 0.1
2017-Mar-21 18:31N 64°01' E 011°14'8 8.1
2017-Mar-21 17:33N 63°54' E 011°05'1010.0
2017-Mar-21 16:33N 63°45' E 010°59'1010.3
2017-Mar-21 15:33N 63°39' E 010°40'1110.8
2017-Mar-21 14:33N 63°32' E 010°21'1010.3
2017-Mar-21 13:33N 63°29' E 009°59'10 9.9
2017-Mar-21 12:33N 63°37' E 009°47'8 8.1
2017-Mar-21 11:33N 63°36' E 009°29'1111.1
2017-Mar-21 10:33N 63°31' E 009°08'1111.0
2017-Mar-21 09:33N 63°26' E 008°45'1110.8
2017-Mar-21 08:33N 63°22' E 008°23'1110.9
2017-Mar-21 07:34N 63°15' E 008°04'1010.0
2017-Mar-21 06:33N 63°14' E 007°42'10 9.6
2017-Mar-21 05:33N 63°13' E 007°21'9 9.1
2017-Mar-21 04:33N 63°10' E 007°02'9 9.2
2017-Mar-21 03:33N 63°05' E 006°44'9 9.3
2017-Mar-21 02:33N 63°01' E 006°26'9 8.9
2017-Mar-21 01:33N 62°57' E 006°09'9 9.4
2017-Mar-21 00:33N 62°52' E 005°51'10 9.6
2017-Mar-20 23:33N 62°48' E 005°33'  

Dump ship's entire track history